Time;durP1;ratioP1;P1;durP2;ratioP2;P2;SDS_P1;SDS_P2;PMS_P1;PMS_P2;Temp;Humidity;BMP_temperature;BMP_pressure;BME280_temperature;BME280_humidity;BME280_pressure;Samples;Min_cycle;Max_cycle;Signal;HPM_P1;HPM_P2
2022/06/23 00:00:32;;;;;;;5.62;2.50;;;;;;;15.60;54.35;98712.78;1732097;83;21017;-78
2022/06/23 00:03:04;;;;;;;7.72;2.50;;;;;;;15.58;55.59;98714.59;1729321;83;21486;-78
2022/06/23 00:05:39;;;;;;;10.75;3.05;;;;;;;15.54;54.77;98707.39;1733493;82;20970;-77
2022/06/23 00:08:11;;;;;;;9.35;2.65;;;;;;;15.53;57.43;98705.67;1725391;83;21502;-78
2022/06/23 00:10:44;;;;;;;5.75;2.40;;;;;;;15.50;54.77;98700.14;1733009;82;21017;-78
2022/06/23 00:13:22;;;;;;;6.62;2.50;;;;;;;15.47;54.77;98697.66;1726847;83;21007;-78
2022/06/23 00:15:51;;;;;;;6.47;2.70;;;;;;;15.41;52.78;98702.38;1735129;81;20986;-78
2022/06/23 00:18:25;;;;;;;7.25;2.60;;;;;;;15.29;55.38;98692.91;1730364;83;21017;-78
2022/06/23 00:21:03;;;;;;;9.80;2.58;;;;;;;15.26;54.54;98696.14;1734642;82;20990;-78
2022/06/23 00:23:34;;;;;;;8.68;2.70;;;;;;;15.20;56.28;98693.83;1730741;82;21074;-77
2022/06/23 00:26:06;;;;;;;6.37;2.52;;;;;;;15.16;55.95;98695.78;1733909;81;21511;-78
2022/06/23 00:28:50;;;;;;;6.45;2.55;;;;;;;15.14;54.25;98691.09;1719333;82;21011;-78
2022/06/23 00:31:28;;;;;;;11.35;2.70;;;;;;;15.08;56.03;98694.85;1730130;82;21489;-78
2022/06/23 00:33:57;;;;;;;7.10;2.80;;;;;;;15.05;56.26;98692.38;1726767;82;21014;-77
2022/06/23 00:36:37;;;;;;;4.22;2.22;;;;;;;15.02;56.41;98688.61;1731275;82;20943;-78
2022/06/23 00:39:20;;;;;;;4.78;2.62;;;;;;;15.01;57.47;98690.83;1726918;82;21054;-77
2022/06/23 00:41:48;;;;;;;6.12;2.67;;;;;;;15.04;57.42;98698.98;1713413;82;21518;-78
2022/06/23 00:44:20;;;;;;;7.28;2.62;;;;;;;15.01;57.06;98696.53;1716381;82;21018;-78
2022/06/23 00:46:51;;;;;;;4.97;2.58;;;;;;;14.99;58.49;98697.91;1730675;82;21443;-78
2022/06/23 00:49:35;;;;;;;5.78;2.60;;;;;;;15.02;57.45;98692.98;1711938;82;21542;-78
2022/06/23 00:52:13;;;;;;;7.67;2.30;;;;;;;15.03;57.72;98692.07;1705759;81;21466;-77
2022/06/23 00:54:44;;;;;;;4.20;2.30;;;;;;;15.03;58.16;98691.60;1718390;82;21042;-77
2022/06/23 00:57:21;;;;;;;5.15;2.87;;;;;;;15.05;60.15;98688.91;1715263;83;20958;-77
2022/06/23 00:59:56;;;;;;;22.35;3.98;;;;;;;15.04;57.39;98686.77;1722783;82;20979;-78
2022/06/23 01:02:28;;;;;;;27.58;3.52;;;;;;;15.04;58.31;98691.13;1731512;83;21026;-78
2022/06/23 01:05:03;;;;;;;27.87;3.80;;;;;;;15.02;57.71;98689.92;1721120;80;21604;-78
2022/06/23 01:08:00;;;;;;;16.73;2.77;;;;;;;14.99;56.14;98687.91;1731451;83;20994;-78
2022/06/23 01:11:02;;;;;;;28.60;3.33;;;;;;;14.93;57.85;98681.67;1722702;82;20958;-77
2022/06/23 01:14:03;;;;;;;29.00;4.70;;;;;;;14.89;58.72;98684.43;1731290;82;20966;-77
2022/06/23 01:16:36;;;;;;;19.27;3.30;;;;;;;14.84;57.05;98681.64;1728743;82;20987;-77
2022/06/23 01:19:42;;;;;;;11.85;3.10;;;;;;;14.77;61.52;98682.42;1729441;82;21037;-77
2022/06/23 01:22:40;;;;;;;11.28;2.95;;;;;;;14.77;59.92;98670.64;1724454;82;21548;-77
2022/06/23 01:25:53;;;;;;;6.40;2.70;;;;;;;14.70;59.45;98684.94;1723452;82;21014;-77
2022/06/23 01:28:23;;;;;;;8.78;2.50;;;;;;;14.67;60.73;98678.56;1731128;82;20998;-78
2022/06/23 01:31:07;;;;;;;6.75;2.80;;;;;;;14.65;61.45;98678.62;1722705;82;20987;-77
2022/06/23 01:33:57;;;;;;;8.05;2.60;;;;;;;14.65;60.92;98677.79;1730976;82;21053;-78
2022/06/23 01:36:32;;;;;;;5.20;2.35;;;;;;;14.63;60.77;98676.55;1715144;82;21014;-77
2022/06/23 01:39:13;;;;;;;4.72;2.33;;;;;;;14.63;60.26;98684.39;1724801;83;21051;-78
2022/06/23 01:41:56;;;;;;;8.23;2.12;;;;;;;14.62;61.12;98676.61;1726970;82;20982;-77
2022/06/23 01:44:50;;;;;;;7.22;2.67;;;;;;;14.62;61.21;98677.92;1726557;82;21017;-78
2022/06/23 01:47:24;;;;;;;8.50;2.45;;;;;;;14.58;61.89;98685.06;1727735;82;20963;-77
2022/06/23 01:49:56;;;;;;;12.80;2.72;;;;;;;14.61;62.29;98682.78;1720416;82;21034;-78
2022/06/23 01:52:23;;;;;;;11.10;2.70;;;;;;;14.62;61.37;98681.41;1729258;81;21017;-78
2022/06/23 01:55:01;;;;;;;12.93;2.62;;;;;;;14.64;62.46;98678.25;1730581;83;20946;-77
2022/06/23 01:57:38;;;;;;;29.50;4.12;;;;;;;14.66;62.10;98682.08;1721467;81;21014;-78
2022/06/23 02:00:19;;;;;;;16.48;3.40;;;;;;;14.66;62.75;98679.03;1729577;82;20995;-78
2022/06/23 02:02:59;;;;;;;19.98;3.30;;;;;;;14.65;60.38;98677.32;1722955;82;20971;-78
2022/06/23 02:05:37;;;;;;;14.25;3.15;;;;;;;14.64;62.69;98683.48;1731475;83;20998;-78
2022/06/23 02:08:44;;;;;;;14.23;3.50;;;;;;;14.68;62.38;98687.65;1693925;83;21007;-78
2022/06/23 02:11:34;;;;;;;29.87;3.55;;;;;;;14.73;63.00;98689.20;1720041;83;20990;-78
2022/06/23 02:14:21;;;;;;;33.55;4.37;;;;;;;14.74;62.56;98690.41;1721579;83;20982;-78
2022/06/23 02:17:02;;;;;;;19.05;3.50;;;;;;;14.73;62.01;98688.73;1731175;81;20943;-78
2022/06/23 02:19:50;;;;;;;12.70;3.37;;;;;;;14.70;62.97;98684.94;1727229;83;21525;-77
2022/06/23 02:22:40;;;;;;;16.05;3.30;;;;;;;14.64;61.90;98690.03;1730062;82;21049;-78
2022/06/23 02:25:21;;;;;;;8.03;3.45;;;;;;;14.55;62.41;98695.66;1725695;83;21038;-78
2022/06/23 02:27:53;;;;;;;5.40;2.70;;;;;;;14.54;62.52;98690.02;1729320;80;21542;-78
2022/06/23 02:30:34;;;;;;;7.62;2.62;;;;;;;14.55;63.56;98692.20;1729000;83;21494;-78
2022/06/23 02:33:18;;;;;;;3.92;2.42;;;;;;;14.51;63.39;98691.03;1731783;83;21018;-78
2022/06/23 02:36:19;;;;;;;7.22;3.10;;;;;;;14.50;63.23;98685.86;1730315;83;20994;-77
2022/06/23 02:38:59;;;;;;;4.72;2.65;;;;;;;14.49;63.62;98687.64;1728554;82;21550;-78
2022/06/23 02:41:49;;;;;;;9.10;2.50;;;;;;;14.48;63.57;98684.66;1733154;83;21001;-77
2022/06/23 02:44:24;;;;;;;9.75;2.80;;;;;;;14.48;63.47;98685.09;1725753;83;21553;-77
2022/06/23 02:47:29;;;;;;;5.28;2.55;;;;;;;14.47;63.41;98687.33;1726653;83;20982;-77
2022/06/23 02:50:27;;;;;;;6.05;2.47;;;;;;;14.47;62.78;98690.78;1630669;87;21542;-77
2022/06/23 02:53:09;;;;;;;7.75;2.15;;;;;;;14.43;62.40;98687.93;1729430;83;20981;-77
2022/06/23 02:55:40;;;;;;;8.20;2.33;;;;;;;14.36;62.07;98696.13;1709515;84;21547;-77
2022/06/23 02:58:18;;;;;;;5.62;1.95;;;;;;;14.33;61.06;98699.75;1711108;84;21031;-78
2022/06/23 03:01:15;;;;;;;4.08;1.90;;;;;;;14.25;61.22;98699.27;1722812;82;21017;-77
2022/06/23 03:04:02;;;;;;;4.80;2.17;;;;;;;14.15;61.09;98701.92;1714860;83;21639;-78
2022/06/23 03:06:43;;;;;;;3.45;1.92;;;;;;;14.11;61.42;98713.80;1719054;82;20983;-78
2022/06/23 03:09:36;;;;;;;3.75;1.75;;;;;;;14.09;60.08;98715.64;1719010;83;21005;-77
2022/06/23 03:12:14;;;;;;;4.75;1.90;;;;;;;14.09;60.61;98710.88;1722289;83;21042;-78
2022/06/23 03:14:47;;;;;;;5.62;1.98;;;;;;;14.11;60.93;98705.13;1733570;83;20982;-78
2022/06/23 03:17:31;;;;;;;7.42;1.90;;;;;;;14.13;61.10;98706.74;1724365;83;21418;-78
2022/06/23 03:20:03;;;;;;;3.67;1.95;;;;;;;14.16;60.78;98707.05;1734472;83;21482;-78
2022/06/23 03:22:47;;;;;;;10.45;2.15;;;;;;;14.21;60.97;98716.85;1724774;83;21033;-78
2022/06/23 03:25:25;;;;;;;8.68;2.62;;;;;;;14.24;61.86;98718.47;1713239;84;20987;-78
2022/06/23 03:28:00;;;;;;;10.38;2.90;;;;;;;14.22;62.54;98712.46;1717208;82;21074;-78
2022/06/23 03:30:56;;;;;;;12.73;3.27;;;;;;;14.19;62.33;98719.16;1714188;84;20979;-78
2022/06/23 03:33:37;;;;;;;7.15;2.90;;;;;;;14.20;61.63;98720.84;1706199;84;21027;-78
2022/06/23 03:36:34;;;;;;;6.58;2.72;;;;;;;14.22;60.96;98719.00;1712477;83;20967;-78
2022/06/23 03:42:23;;;;;;;7.05;2.58;;;;;;;14.26;60.91;98727.92;1705688;83;21012;-78
2022/06/23 03:45:11;;;;;;;4.50;2.50;;;;;;;14.37;61.71;98723.53;1714180;82;21003;-79
2022/06/23 03:47:55;;;;;;;8.68;2.75;;;;;;;14.48;62.62;98723.89;1710706;83;20979;-77
2022/06/23 03:50:33;;;;;;;13.72;3.10;;;;;;;14.61;63.32;98726.79;1713905;84;21510;-77
2022/06/23 03:53:05;;;;;;;7.55;3.10;;;;;;;14.71;61.90;98733.27;1708897;84;21567;-78
2022/06/23 03:55:43;;;;;;;8.78;2.90;;;;;;;14.76;62.63;98742.67;1706644;84;21007;-78
2022/06/23 03:58:30;;;;;;;9.05;2.80;;;;;;;14.83;62.33;98746.23;1708243;82;20983;-77
2022/06/23 04:01:17;;;;;;;7.65;2.72;;;;;;;14.84;63.23;98751.87;1708185;84;20975;-78
2022/06/23 04:04:04;;;;;;;13.28;2.90;;;;;;;14.94;63.13;98750.09;1700341;84;20995;-78
2022/06/23 04:06:47;;;;;;;6.80;2.85;;;;;;;15.03;62.79;98753.12;1709416;84;20991;-78
2022/06/23 04:09:25;;;;;;;8.03;2.60;;;;;;;15.13;62.64;98745.66;1710182;84;21031;-78
2022/06/23 04:12:14;;;;;;;9.58;3.10;;;;;;;15.26;61.71;98753.31;1712043;83;20987;-78
2022/06/23 04:15:06;;;;;;;8.03;3.30;;;;;;;15.36;61.51;98752.83;1712063;84;21522;-78
2022/06/23 04:17:53;;;;;;;6.00;3.40;;;;;;;15.46;60.56;98744.45;1698052;84;20944;-78
2022/06/23 04:20:39;;;;;;;5.83;2.90;;;;;;;15.55;61.66;98742.28;1707069;83;20978;-77
2022/06/23 04:23:23;;;;;;;11.65;2.75;;;;;;;15.67;61.93;98736.41;1713866;84;21114;-78
2022/06/23 04:25:58;;;;;;;7.22;2.80;;;;;;;15.77;60.02;98735.03;1699568;84;20979;-78
2022/06/23 04:28:48;;;;;;;7.55;3.08;;;;;;;15.80;60.48;98733.58;1714166;83;21023;-78
2022/06/23 04:31:19;;;;;;;7.12;2.90;;;;;;;15.88;60.31;98732.70;1713698;84;21106;-78
2022/06/23 04:33:48;;;;;;;8.60;2.70;;;;;;;15.93;60.33;98733.77;1713225;84;21006;-78
2022/06/23 04:36:20;;;;;;;16.10;3.40;;;;;;;16.00;59.23;98737.77;1703205;84;21459;-78
2022/06/23 04:38:57;;;;;;;14.10;3.70;;;;;;;16.01;59.70;98732.89;1712816;84;20959;-78
2022/06/23 04:41:39;;;;;;;12.47;3.22;;;;;;;15.96;59.85;98740.17;1701751;84;20975;-78
2022/06/23 04:44:20;;;;;;;8.70;3.30;;;;;;;15.91;59.76;98736.46;1713400;83;20987;-78
2022/06/23 04:46:51;;;;;;;9.95;3.27;;;;;;;15.87;60.15;98741.95;1704629;84;20979;-78
2022/06/23 04:49:44;;;;;;;10.58;3.98;;;;;;;15.90;59.71;98752.30;1714289;84;20966;-78
2022/06/23 04:52:22;;;;;;;7.15;3.85;;;;;;;15.79;61.68;98745.44;1707363;84;20991;-78
2022/06/23 04:54:54;;;;;;;12.33;4.28;;;;;;;15.73;61.07;98740.05;1714229;84;21570;-78
2022/06/23 04:57:34;;;;;;;9.75;4.12;;;;;;;15.75;60.65;98742.13;1706408;84;21479;-78
2022/06/23 05:00:03;;;;;;;7.12;3.50;;;;;;;15.76;60.61;98737.28;1714338;83;20991;-78
2022/06/23 05:02:38;;;;;;;9.38;3.95;;;;;;;15.78;60.74;98745.91;1706467;84;20948;-78
2022/06/23 05:05:10;;;;;;;14.58;3.55;;;;;;;15.81;61.90;98747.52;1711566;84;21486;-77
2022/06/23 05:08:03;;;;;;;9.68;4.05;;;;;;;15.92;60.56;98746.51;1709653;84;21463;-78
2022/06/23 05:10:37;;;;;;;10.50;3.73;;;;;;;15.83;60.68;98743.05;1695317;84;21048;-78
2022/06/23 05:13:15;;;;;;;9.20;3.62;;;;;;;15.85;60.67;98744.65;1707224;84;20984;-77
2022/06/23 05:16:14;;;;;;;12.73;3.65;;;;;;;15.86;60.96;98742.90;1696284;84;21002;-77
2022/06/23 05:18:46;;;;;;;12.50;3.65;;;;;;;15.89;61.15;98744.03;1710294;83;20968;-77
2022/06/23 05:21:20;;;;;;;9.68;4.10;;;;;;;16.04;60.79;98752.88;1714491;84;21066;-77
2022/06/23 05:23:59;;;;;;;9.00;3.67;;;;;;;16.21;60.17;98752.80;1738248;82;21059;-77
2022/06/23 05:26:40;;;;;;;12.37;4.17;;;;;;;16.37;60.30;98762.01;1713372;83;21034;-77
2022/06/23 05:29:33;;;;;;;12.95;4.33;;;;;;;16.50;60.58;98760.42;1708342;83;21068;-77
2022/06/23 05:32:08;;;;;;;12.68;4.30;;;;;;;16.64;59.60;98762.28;1702778;84;21463;-78
2022/06/23 05:34:40;;;;;;;12.30;4.28;;;;;;;16.77;59.60;98753.28;1700405;82;21008;-78
2022/06/23 05:37:26;;;;;;;11.28;4.62;;;;;;;16.97;59.23;98750.01;1712344;82;21450;-76
2022/06/23 05:40:36;;;;;;;11.93;4.67;;;;;;;17.15;58.73;98750.30;1710209;82;20988;-76
2022/06/23 05:43:04;;;;;;;12.05;4.87;;;;;;;17.30;58.32;98748.55;1712320;82;20944;-76
2022/06/23 05:45:41;;;;;;;10.13;5.00;;;;;;;17.51;57.92;98755.65;1710792;82;21480;-76
2022/06/23 05:48:19;;;;;;;13.78;5.20;;;;;;;17.63;57.62;98750.98;1702984;84;20971;-76
2022/06/23 05:50:50;;;;;;;14.53;5.25;;;;;;;17.74;57.50;98746.86;1710299;82;21010;-76
2022/06/23 05:53:49;;;;;;;19.23;7.62;;;;;;;17.93;56.88;98752.73;1711311;82;20963;-77
2022/06/23 05:56:42;;;;;;;12.63;6.62;;;;;;;17.96;56.84;98750.37;1716873;82;21004;-78
2022/06/23 05:59:17;;;;;;;10.00;5.53;;;;;;;18.17;56.65;98750.38;1711626;82;20960;-78
2022/06/23 06:01:52;;;;;;;8.78;4.90;;;;;;;18.33;56.39;98745.02;1711697;82;21671;-79
2022/06/23 06:04:23;;;;;;;9.93;4.53;;;;;;;18.47;55.81;98751.56;1708191;82;21011;-79
2022/06/23 06:06:50;;;;;;;8.70;3.95;;;;;;;18.60;55.41;98750.78;1711942;82;21051;-78
2022/06/23 06:09:36;;;;;;;11.48;3.85;;;;;;;18.76;55.26;98751.52;1707579;82;20936;-78
2022/06/23 06:12:17;;;;;;;13.18;4.60;;;;;;;18.90;55.07;98744.53;1707944;82;21016;-78
2022/06/23 06:15:07;;;;;;;11.10;4.22;;;;;;;19.02;54.85;98737.13;1704390;82;21031;-77
2022/06/23 06:17:37;;;;;;;11.63;4.78;;;;;;;19.16;54.55;98737.55;1712189;82;21076;-79
2022/06/23 06:20:08;;;;;;;9.23;4.20;;;;;;;19.30;54.24;98736.63;1705261;82;21496;-78
2022/06/23 06:23:00;;;;;;;10.28;4.00;;;;;;;19.43;53.53;98742.78;1711335;82;21087;-79
2022/06/23 06:25:34;;;;;;;11.88;4.17;;;;;;;19.54;53.13;98745.55;1708284;82;21496;-78
2022/06/23 06:28:18;;;;;;;8.75;3.55;;;;;;;19.67;52.40;98746.38;1718777;81;21537;-78
2022/06/23 06:31:09;;;;;;;11.88;3.90;;;;;;;19.57;52.38;98750.59;1729019;81;21047;-79
2022/06/23 06:33:57;;;;;;;8.45;3.37;;;;;;;19.55;52.11;98751.17;1737385;81;20935;-79
2022/06/23 06:36:31;;;;;;;13.10;3.27;;;;;;;19.69;51.13;98755.52;1737549;81;21505;-78
2022/06/23 06:39:03;;;;;;;7.97;2.67;;;;;;;19.75;51.31;98749.02;1732028;81;20951;-79
2022/06/23 06:41:30;;;;;;;7.77;2.87;;;;;;;19.85;51.48;98746.11;1734124;81;21446;-78
2022/06/23 06:43:59;;;;;;;12.00;2.40;;;;;;;19.96;51.07;98744.07;1733323;81;20977;-78
2022/06/23 06:46:27;;;;;;;7.92;2.65;;;;;;;20.14;50.80;98745.91;1731861;81;20961;-78
2022/06/23 06:48:55;;;;;;;6.28;2.40;;;;;;;20.18;50.44;98757.94;1739459;81;20933;-79
2022/06/23 06:51:24;;;;;;;9.25;2.27;;;;;;;20.31;50.08;98751.30;1733758;81;21002;-79
2022/06/23 06:53:58;;;;;;;14.35;6.40;;;;;;;20.43;49.82;98747.33;1730941;81;20965;-79
2022/06/23 06:56:48;;;;;;;5.90;2.10;;;;;;;20.52;49.26;98752.91;1729935;81;21532;-79
2022/06/23 06:59:23;;;;;;;10.25;2.47;;;;;;;20.57;48.46;98754.72;1734024;81;21527;-80
2022/06/23 07:02:15;;;;;;;6.25;1.67;;;;;;;20.64;48.10;98754.69;1733521;81;20997;-79
2022/06/23 07:04:53;;;;;;;5.35;1.98;;;;;;;20.72;47.67;98752.82;1733197;81;20974;-78
2022/06/23 07:07:24;;;;;;;19.95;4.72;;;;;;;20.88;47.77;98757.35;1733449;81;20977;-79
2022/06/23 07:10:26;;;;;;;10.80;3.25;;;;;;;20.99;46.87;98756.09;1733899;81;20961;-79
2022/06/23 07:12:59;;;;;;;5.47;2.37;;;;;;;21.04;46.68;98751.78;1735674;81;21030;-79
2022/06/23 07:15:30;;;;;;;8.33;2.20;;;;;;;21.15;46.60;98746.56;1739380;81;20935;-78
2022/06/23 07:18:24;;;;;;;7.62;3.12;;;;;;;21.26;46.54;98751.03;1734070;81;21045;-82
2022/06/23 07:21:05;;;;;;;11.88;2.17;;;;;;;21.30;46.30;98758.27;1736258;81;21457;-80
2022/06/23 07:23:55;;;;;;;4.53;2.00;;;;;;;21.26;46.47;98760.28;1733605;81;20971;-79
2022/06/23 07:26:35;;;;;;;5.70;2.10;;;;;;;21.27;46.62;98763.31;1739993;81;21027;-80
2022/06/23 07:29:26;;;;;;;6.92;2.20;;;;;;;21.36;46.33;98753.34;1734341;80;21204;-79
2022/06/23 07:32:13;;;;;;;6.33;2.10;;;;;;;21.40;46.38;98757.94;1727886;81;21002;-80
2022/06/23 07:34:51;;;;;;;5.47;1.57;;;;;;;21.41;46.42;98760.95;1742149;80;21488;-80
2022/06/23 07:37:29;;;;;;;5.72;1.90;;;;;;;21.40;46.38;98772.48;1747575;80;20983;-80
2022/06/23 07:40:04;;;;;;;5.78;2.12;;;;;;;21.47;46.27;98771.56;1742641;80;21033;-82
2022/06/23 07:42:54;;;;;;;5.78;1.82;;;;;;;21.39;46.31;98774.28;1738586;80;21013;-83
2022/06/23 07:45:46;;;;;;;6.30;1.90;;;;;;;21.38;46.46;98770.42;1741213;81;20939;-83
2022/06/23 07:48:13;;;;;;;6.67;2.15;;;;;;;21.41;46.40;98767.08;1747809;80;21010;-83
2022/06/23 07:50:40;;;;;;;7.78;2.08;;;;;;;21.47;46.19;98775.07;1745201;80;20977;-82
2022/06/23 07:53:12;;;;;;;4.80;2.00;;;;;;;21.38;46.37;98781.00;1742168;80;21423;-82
2022/06/23 07:55:42;;;;;;;9.63;1.90;;;;;;;21.38;46.61;98781.84;1742856;80;21041;-82
2022/06/23 07:58:10;;;;;;;4.72;1.87;;;;;;;21.40;46.53;98787.86;1741984;81;21563;-84
2022/06/23 08:00:41;;;;;;;5.72;2.20;;;;;;;21.52;46.25;98792.73;1748704;80;21008;-82
2022/06/23 08:03:30;;;;;;;8.23;1.98;;;;;;;21.48;46.40;98783.84;1742145;80;21293;-84
2022/06/23 08:06:02;;;;;;;7.67;2.17;;;;;;;21.45;46.47;98784.92;1744927;81;20996;-85
2022/06/23 08:08:34;;;;;;;6.60;1.90;;;;;;;21.63;46.39;98796.75;1748794;80;21020;-85
2022/06/23 08:13:59;;;;;;;6.10;2.37;;;;;;;21.91;46.38;98786.72;1747524;80;21057;-85
2022/06/23 08:19:34;;;;;;;8.58;2.50;;;;;;;22.21;45.88;98787.46;1744153;80;21048;-84
2022/06/23 08:22:06;;;;;;;4.42;2.00;;;;;;;22.28;45.51;98786.52;1742828;80;21028;-82
2022/06/23 08:24:36;;;;;;;4.73;1.83;;;;;;;22.36;45.65;98787.25;1740684;80;20972;-83
2022/06/23 08:27:10;;;;;;;9.10;2.60;;;;;;;22.55;45.63;98782.67;1738226;80;21000;-84
2022/06/23 08:29:45;;;;;;;5.08;2.25;;;;;;;22.74;44.64;98782.89;1737617;81;20971;-84
2022/06/23 08:32:13;;;;;;;10.78;5.62;;;;;;;22.87;44.74;98790.69;1693312;82;20984;-85
2022/06/23 08:34:45;;;;;;;6.10;3.02;;;;;;;22.99;44.74;98789.69;1666524;85;21056;-84
2022/06/23 08:37:20;;;;;;;8.28;2.00;;;;;;;23.10;44.54;98796.81;1654324;84;21608;-83
2022/06/23 08:40:04;;;;;;;7.40;2.50;;;;;;;23.20;44.18;98798.23;1708147;82;21111;-83
2022/06/23 08:42:45;;;;;;;6.83;2.10;;;;;;;23.18;44.05;98800.17;1710041;82;21147;-80
2022/06/23 08:45:25;;;;;;;6.67;2.30;;;;;;;23.26;44.33;98800.38;1714622;82;21019;-81
2022/06/23 08:48:23;;;;;;;7.80;2.00;;;;;;;23.31;44.08;98796.84;1703006;82;21035;-78
2022/06/23 08:50:58;;;;;;;5.22;1.90;;;;;;;23.37;43.98;98802.13;1701628;82;21559;-79
2022/06/23 08:53:50;;;;;;;3.00;1.67;;;;;;;23.36;43.33;98795.16;1710619;82;21590;-79
2022/06/23 08:56:37;;;;;;;10.00;2.12;;;;;;;23.37;42.91;98802.97;1710751;82;21004;-80
2022/06/23 08:59:24;;;;;;;5.10;1.75;;;;;;;23.33;43.34;98798.05;1706331;82;21004;-81
2022/06/23 09:02:23;;;;;;;6.37;1.80;;;;;;;23.38;42.80;98807.81;1709984;82;20996;-82
2022/06/23 09:05:13;;;;;;;7.75;1.90;;;;;;;23.39;42.42;98806.83;1688986;83;21106;-81
2022/06/23 09:08:00;;;;;;;8.55;1.65;;;;;;;23.38;42.27;98809.14;1735071;81;20995;-82
2022/06/23 09:11:09;;;;;;;6.40;1.65;;;;;;;23.52;41.54;98810.16;1723889;81;21014;-81
2022/06/23 09:14:31;;;;;;;3.62;1.62;;;;;;;23.59;41.52;98799.86;1728605;81;21022;-81
2022/06/23 09:17:31;;;;;;;5.12;1.60;;;;;;;23.58;42.34;98801.68;1729625;81;21577;-80
2022/06/23 09:20:15;;;;;;;6.72;2.42;;;;;;;23.75;42.34;98804.72;1722615;81;21006;-80
2022/06/23 09:23:20;;;;;;;4.95;1.80;;;;;;;23.79;42.30;98803.52;1735529;81;21031;-80
2022/06/23 09:26:07;;;;;;;4.60;1.57;;;;;;;23.84;41.58;98807.97;1727015;81;21441;-79
2022/06/23 09:28:57;;;;;;;3.58;1.57;;;;;;;23.79;40.53;98800.38;1726368;81;21010;-81
2022/06/23 09:31:58;;;;;;;6.20;1.72;;;;;;;23.79;40.92;98797.72;1700436;83;20975;-81
2022/06/23 09:35:05;;;;;;;7.15;2.70;;;;;;;23.90;40.13;98800.81;1700127;83;21112;-80
2022/06/23 09:37:58;;;;;;;3.50;1.60;;;;;;;23.96;40.54;98791.48;1706391;83;20983;-82
2022/06/23 09:40:59;;;;;;;4.47;1.75;;;;;;;23.97;40.01;98790.03;1710129;83;20991;-80
2022/06/23 09:43:50;;;;;;;4.33;1.70;;;;;;;24.07;39.32;98779.94;1702446;83;20981;-80
2022/06/23 09:46:50;;;;;;;5.15;1.50;;;;;;;24.12;38.96;98781.72;1702796;83;21015;-81
2022/06/23 09:49:30;;;;;;;4.25;1.47;;;;;;;24.10;39.10;98775.20;1712762;83;21030;-82
2022/06/23 09:52:32;;;;;;;4.90;1.62;;;;;;;24.14;38.88;98767.82;1683243;83;20982;-82
2022/06/23 09:55:36;;;;;;;5.10;1.55;;;;;;;24.16;38.68;98776.49;1701019;83;20965;-80
2022/06/23 09:58:26;;;;;;;;;;;;;;;24.27;38.12;98779.05;1705769;83;20953;-79
2022/06/23 10:01:09;;;;;;;5.10;1.67;;;;;;;24.44;38.27;98779.41;1708090;83;20138;-79
2022/06/23 10:03:53;;;;;;;6.75;2.10;;;;;;;24.58;37.05;98779.06;1703502;83;21042;-80
2022/06/23 10:06:43;;;;;;;5.00;2.15;;;;;;;24.72;36.16;98782.66;1703593;83;20989;-82
2022/06/23 10:09:21;;;;;;;5.65;1.80;;;;;;;24.88;36.89;98787.95;1653270;83;21013;-78
2022/06/23 10:12:03;;;;;;;5.87;2.08;;;;;;;25.13;37.19;98785.27;1698105;83;21453;-78
2022/06/23 10:14:44;;;;;;;6.40;2.22;;;;;;;25.48;36.29;98785.22;1702673;83;21588;-78
2022/06/23 10:17:36;;;;;;;5.17;1.70;;;;;;;25.84;35.96;98786.28;1709495;83;20995;-79
2022/06/23 10:20:34;;;;;;;7.95;2.20;;;;;;;26.06;34.26;98784.30;1712956;83;20964;-79
2022/06/23 10:23:21;;;;;;;6.85;1.70;;;;;;;26.22;33.10;98781.03;1678273;84;21020;-79
2022/06/23 10:26:14;;;;;;;4.15;1.80;;;;;;;26.32;33.79;98773.36;1670127;84;21038;-78
2022/06/23 10:29:01;;;;;;;6.70;3.27;;;;;;;26.37;34.53;98777.73;1675301;83;21468;-79
2022/06/23 10:31:42;;;;;;;4.25;1.62;;;;;;;26.60;34.49;98766.73;1667681;85;21055;-79
2022/06/23 10:34:50;;;;;;;2.58;1.50;;;;;;;26.77;34.03;98777.08;1710093;82;20993;-79
2022/06/23 10:37:37;;;;;;;4.22;1.50;;;;;;;26.91;33.12;98775.23;1731296;81;21074;-79
2022/06/23 10:40:54;;;;;;;4.90;1.62;;;;;;;27.09;34.01;98765.08;1661336;85;21027;-79
2022/06/23 10:44:02;;;;;;;3.65;1.47;;;;;;;27.29;33.17;98767.95;1707426;82;21479;-79
2022/06/23 10:46:40;;;;;;;6.05;1.30;;;;;;;27.56;33.84;98764.86;1692804;83;21106;-79
2022/06/23 10:49:47;;;;;;;4.00;1.40;;;;;;;27.80;33.31;98765.53;1708935;82;21011;-80
2022/06/23 10:52:31;;;;;;;3.10;1.50;;;;;;;27.94;32.52;98774.33;1721448;82;21517;-80
2022/06/23 10:55:34;;;;;;;5.72;1.55;;;;;;;28.01;30.87;98763.01;1729602;81;21021;-80
2022/06/23 10:58:52;;;;;;;3.58;1.32;;;;;;;28.00;32.33;98762.69;1726144;81;20971;-80
2022/06/23 11:01:43;;;;;;;3.62;1.40;;;;;;;28.15;32.66;98756.59;1699002;83;21055;-81
2022/06/23 11:04:43;;;;;;;4.75;1.60;;;;;;;28.34;32.40;98755.50;1667329;85;21083;-80
2022/06/23 11:07:37;;;;;;;6.60;1.98;;;;;;;28.53;32.56;98745.09;1666102;85;20999;-79
2022/06/23 11:10:32;;;;;;;3.17;1.50;;;;;;;28.71;30.97;98740.10;1710885;82;20962;-80
2022/06/23 11:13:04;;;;;;;5.37;1.77;;;;;;;28.85;30.03;98743.98;1667378;85;21067;-81
2022/06/23 11:15:51;;;;;;;5.45;1.62;;;;;;;28.77;30.91;98750.17;1715252;82;20967;-80
2022/06/23 11:18:45;;;;;;;3.60;2.27;;;;;;;28.74;31.08;98751.32;1715732;82;21039;-79
2022/06/23 11:21:17;;;;;;;4.65;1.75;;;;;;;28.76;30.97;98756.00;1710341;82;20982;-80
2022/06/23 11:23:52;;;;;;;8.40;4.00;;;;;;;28.80;30.96;98756.52;1732295;81;20983;-79
2022/06/23 11:26:44;;;;;;;5.10;1.50;;;;;;;28.84;29.31;98751.69;1725952;81;21054;-82
2022/06/23 11:29:25;;;;;;;3.98;1.90;;;;;;;28.96;30.38;98749.86;1734008;81;21031;-81
2022/06/23 11:32:33;;;;;;;5.62;1.90;;;;;;;29.12;30.88;98748.25;1733792;81;20979;-81
2022/06/23 11:35:26;;;;;;;5.17;1.47;;;;;;;29.18;30.50;98754.27;1731169;81;20979;-81
2022/06/23 11:38:32;;;;;;;4.20;1.30;;;;;;;29.02;30.12;98737.66;1713028;81;21043;-80
2022/06/23 11:41:28;;;;;;;4.08;1.60;;;;;;;28.98;30.36;98740.34;1723488;81;21003;-82
2022/06/23 11:44:08;;;;;;;3.12;1.65;;;;;;;29.09;30.17;98740.03;1729236;81;21042;-82
2022/06/23 11:46:39;;;;;;;5.25;1.90;;;;;;;29.27;29.50;98738.56;1730271;81;21112;-82
2022/06/23 11:49:23;;;;;;;3.70;1.57;;;;;;;29.25;29.41;98742.42;1694170;83;21003;-81
2022/06/23 11:52:32;;;;;;;5.47;1.52;;;;;;;29.32;29.32;98742.06;1692838;83;21073;-79
2022/06/23 11:55:13;;;;;;;4.15;1.50;;;;;;;29.11;29.54;98742.06;1732025;81;20965;-80
2022/06/23 11:58:22;;;;;;;2.92;1.57;;;;;;;28.95;29.38;98740.69;1732476;81;20951;-81
2022/06/23 12:01:15;;;;;;;3.62;1.70;;;;;;;28.78;29.58;98733.62;1707674;82;20947;-81
2022/06/23 12:03:45;;;;;;;;;;;;;;;28.83;29.50;98735.28;1695942;83;21063;-78
2022/06/23 12:06:20;;;;;;;4.53;1.57;;;;;;;28.66;28.35;98733.09;1710458;82;20145;-78
2022/06/23 12:09:28;;;;;;;4.55;1.67;;;;;;;28.92;29.67;98732.46;1729617;81;21067;-79
2022/06/23 12:11:58;;;;;;;5.45;1.80;;;;;;;29.03;29.33;98736.67;1724723;81;21435;-80
2022/06/23 12:14:26;;;;;;;7.22;1.80;;;;;;;28.93;29.34;98737.34;1729145;81;21093;-81
2022/06/23 12:17:13;;;;;;;6.90;1.80;;;;;;;29.19;29.81;98732.34;1733933;81;21452;-78
2022/06/23 12:19:48;;;;;;;7.75;2.00;;;;;;;29.55;29.64;98725.66;1729913;81;21000;-78
2022/06/23 12:22:36;;;;;;;4.00;1.80;;;;;;;29.84;29.23;98720.78;1714846;81;21035;-85
2022/06/23 12:25:42;;;;;;;4.08;1.87;;;;;;;30.01;29.15;98720.25;1731510;81;20998;-82
2022/06/23 12:28:21;;;;;;;5.08;1.95;;;;;;;30.11;28.81;98719.03;1730902;81;20987;-84
2022/06/23 12:31:26;;;;;;;4.28;1.70;;;;;;;30.18;28.83;98717.82;1730388;81;21550;-84
2022/06/23 12:34:10;;;;;;;4.05;1.67;;;;;;;30.23;28.89;98712.78;1732115;81;21018;-83
2022/06/23 12:36:53;;;;;;;4.53;1.82;;;;;;;30.03;28.80;98717.72;1712258;81;21748;-82
2022/06/23 12:39:51;;;;;;;3.58;1.62;;;;;;;29.87;28.79;98719.11;1735968;81;21026;-82
2022/06/23 12:42:28;;;;;;;6.47;1.62;;;;;;;29.45;29.35;98729.02;1729801;81;20991;-80
2022/06/23 12:45:30;;;;;;;3.58;1.80;;;;;;;28.98;29.65;98729.63;1734367;81;20991;-85
2022/06/23 12:48:20;;;;;;;5.35;1.70;;;;;;;28.68;29.67;98733.25;1737593;81;21101;-80
2022/06/23 12:50:58;;;;;;;4.58;1.90;;;;;;;28.58;30.09;98731.22;1732806;81;20957;-84
2022/06/23 12:53:57;;;;;;;4.50;1.90;;;;;;;28.61;30.41;98727.38;1735272;81;20982;-85
2022/06/23 12:56:47;;;;;;;5.62;1.80;;;;;;;28.70;30.53;98722.40;1738370;81;21016;-82